sensor_id;sensor_type;location;lat;lon;timestamp;P1;durP1;ratioP1;P2;durP2;ratioP2
28862;SDS011;15994;51.796;13.006;2023-09-30T00:01:53;2.55;;;0.80;;
28862;SDS011;15994;51.796;13.006;2023-09-30T00:04:20;2.63;;;0.80;;
28862;SDS011;15994;51.796;13.006;2023-09-30T00:06:46;3.63;;;1.42;;
28862;SDS011;15994;51.796;13.006;2023-09-30T00:09:13;3.38;;;1.10;;
28862;SDS011;15994;51.796;13.006;2023-09-30T00:11:40;3.42;;;1.10;;
28862;SDS011;15994;51.796;13.006;2023-09-30T00:14:07;5.68;;;1.38;;
28862;SDS011;15994;51.796;13.006;2023-09-30T00:16:33;4.60;;;1.40;;
28862;SDS011;15994;51.796;13.006;2023-09-30T00:19:00;4.15;;;1.33;;
28862;SDS011;15994;51.796;13.006;2023-09-30T00:21:28;3.15;;;1.30;;
28862;SDS011;15994;51.796;13.006;2023-09-30T00:23:55;5.85;;;1.60;;
28862;SDS011;15994;51.796;13.006;2023-09-30T00:26:22;4.53;;;1.27;;
28862;SDS011;15994;51.796;13.006;2023-09-30T00:28:48;3.75;;;1.27;;
28862;SDS011;15994;51.796;13.006;2023-09-30T00:31:15;4.45;;;1.50;;
28862;SDS011;15994;51.796;13.006;2023-09-30T00:33:42;4.85;;;1.65;;
28862;SDS011;15994;51.796;13.006;2023-09-30T00:36:09;5.38;;;1.40;;
28862;SDS011;15994;51.796;13.006;2023-09-30T00:38:37;5.50;;;1.83;;
28862;SDS011;15994;51.796;13.006;2023-09-30T00:41:04;4.18;;;1.27;;
28862;SDS011;15994;51.796;13.006;2023-09-30T00:43:31;6.55;;;1.88;;
28862;SDS011;15994;51.796;13.006;2023-09-30T00:48:39;5.07;;;1.50;;
28862;SDS011;15994;51.796;13.006;2023-09-30T00:51:05;2.58;;;1.23;;
28862;SDS011;15994;51.796;13.006;2023-09-30T00:53:32;6.75;;;1.80;;
28862;SDS011;15994;51.796;13.006;2023-09-30T00:55:59;6.00;;;1.73;;
28862;SDS011;15994;51.796;13.006;2023-09-30T00:58:27;9.80;;;2.08;;
28862;SDS011;15994;51.796;13.006;2023-09-30T01:00:56;8.25;;;2.17;;
28862;SDS011;15994;51.796;13.006;2023-09-30T01:03:24;5.18;;;1.45;;
28862;SDS011;15994;51.796;13.006;2023-09-30T01:05:51;8.82;;;2.08;;
28862;SDS011;15994;51.796;13.006;2023-09-30T01:08:19;6.15;;;1.65;;
28862;SDS011;15994;51.796;13.006;2023-09-30T01:10:47;5.55;;;1.40;;
28862;SDS011;15994;51.796;13.006;2023-09-30T01:13:14;7.97;;;1.90;;
28862;SDS011;15994;51.796;13.006;2023-09-30T01:15:40;5.53;;;1.90;;
28862;SDS011;15994;51.796;13.006;2023-09-30T01:18:07;5.10;;;1.55;;
28862;SDS011;15994;51.796;13.006;2023-09-30T01:20:34;8.48;;;2.25;;
28862;SDS011;15994;51.796;13.006;2023-09-30T01:23:01;6.38;;;1.50;;
28862;SDS011;15994;51.796;13.006;2023-09-30T01:25:28;5.82;;;1.85;;
28862;SDS011;15994;51.796;13.006;2023-09-30T01:27:58;6.95;;;1.98;;
28862;SDS011;15994;51.796;13.006;2023-09-30T01:30:31;6.63;;;2.30;;
28862;SDS011;15994;51.796;13.006;2023-09-30T01:32:58;5.65;;;1.90;;
28862;SDS011;15994;51.796;13.006;2023-09-30T01:35:25;4.38;;;1.58;;
28862;SDS011;15994;51.796;13.006;2023-09-30T01:37:52;6.22;;;1.80;;
28862;SDS011;15994;51.796;13.006;2023-09-30T01:40:18;7.35;;;2.10;;
28862;SDS011;15994;51.796;13.006;2023-09-30T01:42:45;7.10;;;2.17;;
28862;SDS011;15994;51.796;13.006;2023-09-30T01:45:12;6.85;;;1.65;;
28862;SDS011;15994;51.796;13.006;2023-09-30T01:47:39;7.30;;;1.90;;
28862;SDS011;15994;51.796;13.006;2023-09-30T01:50:06;6.47;;;1.75;;
28862;SDS011;15994;51.796;13.006;2023-09-30T01:52:33;6.90;;;2.17;;
28862;SDS011;15994;51.796;13.006;2023-09-30T01:55:00;8.98;;;2.08;;
28862;SDS011;15994;51.796;13.006;2023-09-30T01:57:26;8.98;;;2.35;;
28862;SDS011;15994;51.796;13.006;2023-09-30T01:59:53;6.55;;;1.80;;
28862;SDS011;15994;51.796;13.006;2023-09-30T02:02:21;9.10;;;2.25;;
28862;SDS011;15994;51.796;13.006;2023-09-30T02:04:48;7.20;;;1.73;;
28862;SDS011;15994;51.796;13.006;2023-09-30T02:07:14;6.75;;;2.08;;
28862;SDS011;15994;51.796;13.006;2023-09-30T02:09:41;10.20;;;2.20;;
28862;SDS011;15994;51.796;13.006;2023-09-30T02:12:08;9.30;;;2.83;;
28862;SDS011;15994;51.796;13.006;2023-09-30T02:14:35;6.88;;;2.53;;
28862;SDS011;15994;51.796;13.006;2023-09-30T02:17:03;5.85;;;1.83;;
28862;SDS011;15994;51.796;13.006;2023-09-30T02:19:30;10.20;;;2.63;;
28862;SDS011;15994;51.796;13.006;2023-09-30T02:21:59;5.85;;;2.47;;
28862;SDS011;15994;51.796;13.006;2023-09-30T02:24:26;7.07;;;2.13;;
28862;SDS011;15994;51.796;13.006;2023-09-30T02:26:52;6.90;;;1.92;;
28862;SDS011;15994;51.796;13.006;2023-09-30T02:29:19;8.68;;;2.33;;
28862;SDS011;15994;51.796;13.006;2023-09-30T02:31:46;10.35;;;2.17;;
28862;SDS011;15994;51.796;13.006;2023-09-30T02:34:12;6.65;;;2.30;;
28862;SDS011;15994;51.796;13.006;2023-09-30T02:36:40;7.05;;;2.00;;
28862;SDS011;15994;51.796;13.006;2023-09-30T02:39:07;11.60;;;2.33;;
28862;SDS011;15994;51.796;13.006;2023-09-30T02:41:35;8.23;;;2.10;;
28862;SDS011;15994;51.796;13.006;2023-09-30T02:44:02;7.80;;;1.80;;
28862;SDS011;15994;51.796;13.006;2023-09-30T02:46:30;8.88;;;2.47;;
28862;SDS011;15994;51.796;13.006;2023-09-30T02:48:57;6.10;;;1.98;;
28862;SDS011;15994;51.796;13.006;2023-09-30T02:51:23;7.53;;;2.50;;
28862;SDS011;15994;51.796;13.006;2023-09-30T02:53:50;6.80;;;1.98;;
28862;SDS011;15994;51.796;13.006;2023-09-30T02:56:17;6.82;;;2.25;;
28862;SDS011;15994;51.796;13.006;2023-09-30T02:58:45;7.95;;;2.15;;
28862;SDS011;15994;51.796;13.006;2023-09-30T03:01:15;6.22;;;1.80;;
28862;SDS011;15994;51.796;13.006;2023-09-30T03:03:43;8.13;;;2.58;;
28862;SDS011;15994;51.796;13.006;2023-09-30T03:06:10;6.63;;;1.88;;
28862;SDS011;15994;51.796;13.006;2023-09-30T03:08:37;6.20;;;1.90;;
28862;SDS011;15994;51.796;13.006;2023-09-30T03:11:04;10.00;;;2.78;;
28862;SDS011;15994;51.796;13.006;2023-09-30T03:16:52;8.07;;;2.53;;
28862;SDS011;15994;51.796;13.006;2023-09-30T03:19:19;8.25;;;2.50;;
28862;SDS011;15994;51.796;13.006;2023-09-30T03:21:46;7.40;;;2.05;;
28862;SDS011;15994;51.796;13.006;2023-09-30T03:24:13;8.63;;;2.00;;
28862;SDS011;15994;51.796;13.006;2023-09-30T03:26:40;8.88;;;2.17;;
28862;SDS011;15994;51.796;13.006;2023-09-30T03:29:06;5.80;;;2.10;;
28862;SDS011;15994;51.796;13.006;2023-09-30T03:31:34;5.80;;;2.08;;
28862;SDS011;15994;51.796;13.006;2023-09-30T03:34:05;8.20;;;2.40;;
28862;SDS011;15994;51.796;13.006;2023-09-30T03:36:32;6.95;;;2.00;;
28862;SDS011;15994;51.796;13.006;2023-09-30T03:39:00;6.78;;;2.20;;
28862;SDS011;15994;51.796;13.006;2023-09-30T03:41:30;6.28;;;2.08;;
28862;SDS011;15994;51.796;13.006;2023-09-30T03:44:00;7.30;;;2.47;;
28862;SDS011;15994;51.796;13.006;2023-09-30T03:46:27;7.22;;;2.33;;
28862;SDS011;15994;51.796;13.006;2023-09-30T03:48:55;6.53;;;2.13;;
28862;SDS011;15994;51.796;13.006;2023-09-30T03:51:21;6.70;;;2.40;;
28862;SDS011;15994;51.796;13.006;2023-09-30T03:53:50;7.80;;;2.67;;
28862;SDS011;15994;51.796;13.006;2023-09-30T03:56:17;7.53;;;2.53;;
28862;SDS011;15994;51.796;13.006;2023-09-30T03:58:44;7.75;;;2.55;;
28862;SDS011;15994;51.796;13.006;2023-09-30T04:01:13;7.97;;;2.45;;
28862;SDS011;15994;51.796;13.006;2023-09-30T04:03:41;7.85;;;2.40;;
28862;SDS011;15994;51.796;13.006;2023-09-30T04:06:08;7.07;;;2.45;;
28862;SDS011;15994;51.796;13.006;2023-09-30T04:08:35;9.98;;;2.65;;
28862;SDS011;15994;51.796;13.006;2023-09-30T04:11:03;7.70;;;2.50;;
28862;SDS011;15994;51.796;13.006;2023-09-30T04:13:30;9.77;;;2.55;;
28862;SDS011;15994;51.796;13.006;2023-09-30T04:15:56;7.88;;;2.33;;
28862;SDS011;15994;51.796;13.006;2023-09-30T04:18:24;9.73;;;2.60;;
28862;SDS011;15994;51.796;13.006;2023-09-30T04:20:51;9.10;;;2.47;;
28862;SDS011;15994;51.796;13.006;2023-09-30T04:23:19;7.10;;;2.13;;
28862;SDS011;15994;51.796;13.006;2023-09-30T04:25:46;8.73;;;2.30;;
28862;SDS011;15994;51.796;13.006;2023-09-30T04:28:14;7.50;;;2.22;;
28862;SDS011;15994;51.796;13.006;2023-09-30T04:30:45;7.85;;;2.67;;
28862;SDS011;15994;51.796;13.006;2023-09-30T04:33:14;8.93;;;2.80;;
28862;SDS011;15994;51.796;13.006;2023-09-30T04:35:42;7.45;;;2.50;;
28862;SDS011;15994;51.796;13.006;2023-09-30T04:38:09;7.30;;;2.72;;
28862;SDS011;15994;51.796;13.006;2023-09-30T04:40:36;9.25;;;2.33;;
28862;SDS011;15994;51.796;13.006;2023-09-30T04:43:03;9.57;;;2.53;;
28862;SDS011;15994;51.796;13.006;2023-09-30T04:45:30;7.90;;;2.58;;
28862;SDS011;15994;51.796;13.006;2023-09-30T04:47:58;7.63;;;2.38;;
28862;SDS011;15994;51.796;13.006;2023-09-30T04:50:26;8.48;;;2.22;;
28862;SDS011;15994;51.796;13.006;2023-09-30T04:52:55;7.55;;;2.17;;
28862;SDS011;15994;51.796;13.006;2023-09-30T04:55:22;8.48;;;2.50;;
28862;SDS011;15994;51.796;13.006;2023-09-30T04:57:49;9.50;;;2.75;;
28862;SDS011;15994;51.796;13.006;2023-09-30T05:00:17;9.65;;;2.70;;
28862;SDS011;15994;51.796;13.006;2023-09-30T05:02:47;8.15;;;2.30;;
28862;SDS011;15994;51.796;13.006;2023-09-30T05:05:13;8.32;;;2.17;;
28862;SDS011;15994;51.796;13.006;2023-09-30T05:07:40;7.32;;;2.53;;
28862;SDS011;15994;51.796;13.006;2023-09-30T05:10:07;8.77;;;2.38;;
28862;SDS011;15994;51.796;13.006;2023-09-30T05:12:38;9.15;;;2.80;;
28862;SDS011;15994;51.796;13.006;2023-09-30T05:15:05;6.97;;;2.40;;
28862;SDS011;15994;51.796;13.006;2023-09-30T05:17:33;8.18;;;2.47;;
28862;SDS011;15994;51.796;13.006;2023-09-30T05:20:00;8.10;;;2.85;;
28862;SDS011;15994;51.796;13.006;2023-09-30T05:22:32;9.25;;;3.05;;
28862;SDS011;15994;51.796;13.006;2023-09-30T05:24:59;4.93;;;2.03;;
28862;SDS011;15994;51.796;13.006;2023-09-30T05:27:26;8.18;;;2.83;;
28862;SDS011;15994;51.796;13.006;2023-09-30T05:29:53;8.55;;;2.60;;
28862;SDS011;15994;51.796;13.006;2023-09-30T05:32:20;12.02;;;3.35;;
28862;SDS011;15994;51.796;13.006;2023-09-30T05:34:47;7.88;;;2.50;;
28862;SDS011;15994;51.796;13.006;2023-09-30T05:37:14;7.00;;;2.53;;
28862;SDS011;15994;51.796;13.006;2023-09-30T05:39:40;8.00;;;2.55;;
28862;SDS011;15994;51.796;13.006;2023-09-30T05:42:09;10.10;;;2.95;;
28862;SDS011;15994;51.796;13.006;2023-09-30T05:44:36;7.88;;;2.42;;
28862;SDS011;15994;51.796;13.006;2023-09-30T05:47:03;7.45;;;2.45;;
28862;SDS011;15994;51.796;13.006;2023-09-30T05:49:30;6.88;;;2.67;;
28862;SDS011;15994;51.796;13.006;2023-09-30T05:51:57;8.02;;;2.80;;
28862;SDS011;15994;51.796;13.006;2023-09-30T05:54:24;8.05;;;3.17;;
28862;SDS011;15994;51.796;13.006;2023-09-30T05:56:50;8.57;;;3.00;;
28862;SDS011;15994;51.796;13.006;2023-09-30T05:59:17;7.85;;;2.42;;
28862;SDS011;15994;51.796;13.006;2023-09-30T06:01:44;7.93;;;2.60;;
28862;SDS011;15994;51.796;13.006;2023-09-30T06:04:11;6.90;;;2.50;;
28862;SDS011;15994;51.796;13.006;2023-09-30T06:06:38;8.30;;;2.67;;
28862;SDS011;15994;51.796;13.006;2023-09-30T06:09:05;10.20;;;3.35;;
28862;SDS011;15994;51.796;13.006;2023-09-30T06:11:32;8.02;;;2.72;;
28862;SDS011;15994;51.796;13.006;2023-09-30T06:14:01;7.25;;;2.17;;
28862;SDS011;15994;51.796;13.006;2023-09-30T06:16:31;6.93;;;2.50;;
28862;SDS011;15994;51.796;13.006;2023-09-30T06:18:58;8.82;;;2.28;;
28862;SDS011;15994;51.796;13.006;2023-09-30T06:21:25;7.72;;;2.50;;
28862;SDS011;15994;51.796;13.006;2023-09-30T06:23:54;9.05;;;2.47;;
28862;SDS011;15994;51.796;13.006;2023-09-30T06:26:21;8.18;;;2.80;;
28862;SDS011;15994;51.796;13.006;2023-09-30T06:28:49;9.50;;;3.10;;
28862;SDS011;15994;51.796;13.006;2023-09-30T06:31:19;8.75;;;3.03;;
28862;SDS011;15994;51.796;13.006;2023-09-30T06:33:46;9.98;;;3.25;;
28862;SDS011;15994;51.796;13.006;2023-09-30T06:36:13;7.10;;;2.70;;
28862;SDS011;15994;51.796;13.006;2023-09-30T06:38:41;7.90;;;2.53;;
28862;SDS011;15994;51.796;13.006;2023-09-30T06:41:14;14.25;;;4.22;;
28862;SDS011;15994;51.796;13.006;2023-09-30T06:43:42;12.02;;;3.60;;
28862;SDS011;15994;51.796;13.006;2023-09-30T06:46:11;10.68;;;3.10;;
28862;SDS011;15994;51.796;13.006;2023-09-30T06:48:38;10.27;;;3.10;;
28862;SDS011;15994;51.796;13.006;2023-09-30T06:51:06;12.40;;;3.35;;
28862;SDS011;15994;51.796;13.006;2023-09-30T06:53:35;9.27;;;3.00;;
28862;SDS011;15994;51.796;13.006;2023-09-30T06:56:04;10.65;;;3.25;;
28862;SDS011;15994;51.796;13.006;2023-09-30T06:58:32;12.90;;;3.80;;
28862;SDS011;15994;51.796;13.006;2023-09-30T07:00:59;16.75;;;4.25;;
28862;SDS011;15994;51.796;13.006;2023-09-30T07:03:26;13.65;;;4.00;;
28862;SDS011;15994;51.796;13.006;2023-09-30T07:05:53;13.65;;;3.70;;
28862;SDS011;15994;51.796;13.006;2023-09-30T07:08:21;13.10;;;4.15;;
28862;SDS011;15994;51.796;13.006;2023-09-30T07:10:48;12.95;;;3.70;;
28862;SDS011;15994;51.796;13.006;2023-09-30T07:13:16;13.95;;;3.75;;
28862;SDS011;15994;51.796;13.006;2023-09-30T07:15:43;8.90;;;2.78;;
28862;SDS011;15994;51.796;13.006;2023-09-30T07:18:09;13.52;;;4.18;;
28862;SDS011;15994;51.796;13.006;2023-09-30T07:20:37;14.48;;;4.55;;
28862;SDS011;15994;51.796;13.006;2023-09-30T07:23:04;11.23;;;3.00;;
28862;SDS011;15994;51.796;13.006;2023-09-30T07:25:30;12.75;;;3.35;;
28862;SDS011;15994;51.796;13.006;2023-09-30T07:27:57;13.73;;;4.35;;
28862;SDS011;15994;51.796;13.006;2023-09-30T07:30:26;14.35;;;3.88;;
28862;SDS011;15994;51.796;13.006;2023-09-30T07:32:53;11.73;;;3.30;;
28862;SDS011;15994;51.796;13.006;2023-09-30T07:35:19;12.23;;;3.58;;
28862;SDS011;15994;51.796;13.006;2023-09-30T07:37:46;13.35;;;4.22;;
28862;SDS011;15994;51.796;13.006;2023-09-30T07:40:16;10.50;;;2.75;;
28862;SDS011;15994;51.796;13.006;2023-09-30T07:42:43;11.68;;;3.47;;
28862;SDS011;15994;51.796;13.006;2023-09-30T07:45:10;9.90;;;3.05;;
28862;SDS011;15994;51.796;13.006;2023-09-30T07:47:41;11.88;;;4.25;;
28862;SDS011;15994;51.796;13.006;2023-09-30T07:50:11;13.23;;;3.65;;
28862;SDS011;15994;51.796;13.006;2023-09-30T07:52:38;14.73;;;4.25;;
28862;SDS011;15994;51.796;13.006;2023-09-30T07:55:07;10.32;;;3.50;;
28862;SDS011;15994;51.796;13.006;2023-09-30T07:57:34;13.63;;;4.20;;
28862;SDS011;15994;51.796;13.006;2023-09-30T08:00:02;14.90;;;3.55;;
28862;SDS011;15994;51.796;13.006;2023-09-30T08:02:33;14.20;;;3.88;;
28862;SDS011;15994;51.796;13.006;2023-09-30T08:05:00;12.68;;;3.75;;
28862;SDS011;15994;51.796;13.006;2023-09-30T08:07:27;9.48;;;3.42;;
28862;SDS011;15994;51.796;13.006;2023-09-30T08:09:53;15.30;;;3.95;;
28862;SDS011;15994;51.796;13.006;2023-09-30T08:12:20;14.48;;;4.18;;
28862;SDS011;15994;51.796;13.006;2023-09-30T08:14:47;15.32;;;4.25;;
28862;SDS011;15994;51.796;13.006;2023-09-30T08:17:14;17.55;;;4.07;;
28862;SDS011;15994;51.796;13.006;2023-09-30T08:19:44;10.65;;;3.28;;
28862;SDS011;15994;51.796;13.006;2023-09-30T08:22:12;12.75;;;3.38;;
28862;SDS011;15994;51.796;13.006;2023-09-30T08:24:39;13.73;;;3.28;;
28862;SDS011;15994;51.796;13.006;2023-09-30T08:27:09;19.23;;;4.68;;
28862;SDS011;15994;51.796;13.006;2023-09-30T08:29:36;16.95;;;4.53;;
28862;SDS011;15994;51.796;13.006;2023-09-30T08:32:03;15.70;;;4.53;;
28862;SDS011;15994;51.796;13.006;2023-09-30T08:34:30;14.70;;;3.90;;
28862;SDS011;15994;51.796;13.006;2023-09-30T08:36:58;16.20;;;4.25;;
28862;SDS011;15994;51.796;13.006;2023-09-30T08:39:25;14.48;;;3.75;;
28862;SDS011;15994;51.796;13.006;2023-09-30T08:41:54;15.32;;;4.03;;
28862;SDS011;15994;51.796;13.006;2023-09-30T08:44:21;16.02;;;4.85;;
28862;SDS011;15994;51.796;13.006;2023-09-30T08:46:51;15.25;;;4.47;;
28862;SDS011;15994;51.796;13.006;2023-09-30T08:49:19;13.48;;;3.70;;
28862;SDS011;15994;51.796;13.006;2023-09-30T08:51:48;12.25;;;3.30;;
28862;SDS011;15994;51.796;13.006;2023-09-30T08:54:15;11.98;;;3.80;;
28862;SDS011;15994;51.796;13.006;2023-09-30T08:56:42;18.27;;;4.20;;
28862;SDS011;15994;51.796;13.006;2023-09-30T08:59:17;13.55;;;3.60;;
28862;SDS011;15994;51.796;13.006;2023-09-30T09:01:44;14.70;;;3.83;;
28862;SDS011;15994;51.796;13.006;2023-09-30T09:04:12;11.77;;;3.22;;
28862;SDS011;15994;51.796;13.006;2023-09-30T09:06:39;13.65;;;3.80;;
28862;SDS011;15994;51.796;13.006;2023-09-30T09:09:13;13.07;;;3.65;;
28862;SDS011;15994;51.796;13.006;2023-09-30T09:11:41;13.00;;;3.63;;
28862;SDS011;15994;51.796;13.006;2023-09-30T09:14:09;14.63;;;3.60;;
28862;SDS011;15994;51.796;13.006;2023-09-30T09:16:36;14.77;;;3.83;;
28862;SDS011;15994;51.796;13.006;2023-09-30T09:19:12;11.57;;;3.63;;
28862;SDS011;15994;51.796;13.006;2023-09-30T09:21:57;14.02;;;3.25;;
28862;SDS011;15994;51.796;13.006;2023-09-30T09:24:36;15.63;;;3.78;;
28862;SDS011;15994;51.796;13.006;2023-09-30T09:27:07;11.43;;;3.55;;
28862;SDS011;15994;51.796;13.006;2023-09-30T09:29:36;14.35;;;3.42;;
28862;SDS011;15994;51.796;13.006;2023-09-30T09:32:06;11.77;;;3.22;;
28862;SDS011;15994;51.796;13.006;2023-09-30T09:34:40;11.68;;;3.30;;
28862;SDS011;15994;51.796;13.006;2023-09-30T09:37:12;7.90;;;2.97;;
28862;SDS011;15994;51.796;13.006;2023-09-30T09:39:56;14.15;;;2.85;;
28862;SDS011;15994;51.796;13.006;2023-09-30T09:42:24;15.77;;;3.50;;
28862;SDS011;15994;51.796;13.006;2023-09-30T09:45:00;13.90;;;3.10;;
28862;SDS011;15994;51.796;13.006;2023-09-30T09:47:31;13.38;;;3.35;;
28862;SDS011;15994;51.796;13.006;2023-09-30T09:49:59;13.48;;;3.78;;
28862;SDS011;15994;51.796;13.006;2023-09-30T09:52:30;11.98;;;2.53;;
28862;SDS011;15994;51.796;13.006;2023-09-30T09:55:00;10.25;;;2.95;;
28862;SDS011;15994;51.796;13.006;2023-09-30T09:57:28;11.68;;;3.10;;
28862;SDS011;15994;51.796;13.006;2023-09-30T09:59:58;11.05;;;3.30;;
28862;SDS011;15994;51.796;13.006;2023-09-30T10:02:30;11.30;;;2.90;;
28862;SDS011;15994;51.796;13.006;2023-09-30T10:04:58;11.57;;;2.42;;
28862;SDS011;15994;51.796;13.006;2023-09-30T10:07:32;10.15;;;2.60;;
28862;SDS011;15994;51.796;13.006;2023-09-30T10:10:02;11.27;;;2.55;;
28862;SDS011;15994;51.796;13.006;2023-09-30T10:12:38;12.10;;;2.67;;
28862;SDS011;15994;51.796;13.006;2023-09-30T10:15:50;11.88;;;2.60;;
28862;SDS011;15994;51.796;13.006;2023-09-30T10:20:29;12.07;;;2.45;;
28862;SDS011;15994;51.796;13.006;2023-09-30T10:25:46;12.25;;;2.90;;
28862;SDS011;15994;51.796;13.006;2023-09-30T10:28:58;12.30;;;2.67;;
28862;SDS011;15994;51.796;13.006;2023-09-30T10:31:11;8.15;;;2.35;;
28862;SDS011;15994;51.796;13.006;2023-09-30T10:34:24;8.82;;;2.85;;
28862;SDS011;15994;51.796;13.006;2023-09-30T10:36:28;9.13;;;2.40;;
28862;SDS011;15994;51.796;13.006;2023-09-30T10:39:00;7.90;;;2.53;;
28862;SDS011;15994;51.796;13.006;2023-09-30T10:44:43;8.55;;;2.50;;
28862;SDS011;15994;51.796;13.006;2023-09-30T10:49:49;11.63;;;2.72;;
28862;SDS011;15994;51.796;13.006;2023-09-30T10:52:22;13.60;;;2.78;;
28862;SDS011;15994;51.796;13.006;2023-09-30T10:54:49;10.23;;;2.25;;
28862;SDS011;15994;51.796;13.006;2023-09-30T10:57:29;7.90;;;2.20;;
28862;SDS011;15994;51.796;13.006;2023-09-30T11:00:12;8.18;;;2.50;;
28862;SDS011;15994;51.796;13.006;2023-09-30T11:02:50;11.05;;;2.20;;
28862;SDS011;15994;51.796;13.006;2023-09-30T11:05:18;10.98;;;2.55;;
28862;SDS011;15994;51.796;13.006;2023-09-30T11:07:49;9.35;;;2.47;;
28862;SDS011;15994;51.796;13.006;2023-09-30T11:10:17;9.90;;;2.45;;
28862;SDS011;15994;51.796;13.006;2023-09-30T11:13:04;9.10;;;2.58;;
28862;SDS011;15994;51.796;13.006;2023-09-30T11:15:30;8.95;;;2.30;;
28862;SDS011;15994;51.796;13.006;2023-09-30T11:18:12;10.43;;;2.60;;
28862;SDS011;15994;51.796;13.006;2023-09-30T11:20:48;10.25;;;2.38;;
28862;SDS011;15994;51.796;13.006;2023-09-30T11:23:15;8.63;;;2.47;;
28862;SDS011;15994;51.796;13.006;2023-09-30T11:25:42;12.70;;;2.72;;
28862;SDS011;15994;51.796;13.006;2023-09-30T11:28:13;8.63;;;2.15;;
28862;SDS011;15994;51.796;13.006;2023-09-30T11:33:48;11.02;;;2.10;;
28862;SDS011;15994;51.796;13.006;2023-09-30T11:36:17;9.80;;;2.15;;
28862;SDS011;15994;51.796;13.006;2023-09-30T11:38:46;9.10;;;2.38;;
28862;SDS011;15994;51.796;13.006;2023-09-30T11:41:15;8.60;;;2.20;;
28862;SDS011;15994;51.796;13.006;2023-09-30T11:44:03;7.53;;;2.15;;
28862;SDS011;15994;51.796;13.006;2023-09-30T11:49:25;7.50;;;1.88;;
28862;SDS011;15994;51.796;13.006;2023-09-30T11:54:27;6.53;;;2.03;;
28862;SDS011;15994;51.796;13.006;2023-09-30T11:57:02;7.75;;;2.10;;
28862;SDS011;15994;51.796;13.006;2023-09-30T11:59:30;7.15;;;2.20;;
28862;SDS011;15994;51.796;13.006;2023-09-30T12:01:57;7.65;;;2.00;;
28862;SDS011;15994;51.796;13.006;2023-09-30T12:04:24;11.45;;;2.80;;
28862;SDS011;15994;51.796;13.006;2023-09-30T12:06:51;5.00;;;1.67;;
28862;SDS011;15994;51.796;13.006;2023-09-30T12:09:18;8.65;;;2.20;;
28862;SDS011;15994;51.796;13.006;2023-09-30T12:11:50;10.32;;;2.40;;
28862;SDS011;15994;51.796;13.006;2023-09-30T12:14:18;9.10;;;2.45;;
28862;SDS011;15994;51.796;13.006;2023-09-30T12:16:45;9.85;;;2.15;;
28862;SDS011;15994;51.796;13.006;2023-09-30T12:19:15;6.63;;;1.83;;
28862;SDS011;15994;51.796;13.006;2023-09-30T12:21:46;8.73;;;2.08;;
28862;SDS011;15994;51.796;13.006;2023-09-30T12:24:16;7.68;;;1.70;;
28862;SDS011;15994;51.796;13.006;2023-09-30T12:26:46;7.82;;;1.80;;
28862;SDS011;15994;51.796;13.006;2023-09-30T12:29:17;9.27;;;2.08;;
28862;SDS011;15994;51.796;13.006;2023-09-30T12:31:45;6.63;;;1.73;;
28862;SDS011;15994;51.796;13.006;2023-09-30T12:34:12;6.43;;;1.90;;
28862;SDS011;15994;51.796;13.006;2023-09-30T12:36:39;7.13;;;1.92;;
28862;SDS011;15994;51.796;13.006;2023-09-30T12:39:06;9.60;;;1.92;;
28862;SDS011;15994;51.796;13.006;2023-09-30T12:41:43;11.30;;;3.00;;
28862;SDS011;15994;51.796;13.006;2023-09-30T12:44:10;5.82;;;1.80;;
28862;SDS011;15994;51.796;13.006;2023-09-30T12:46:38;8.18;;;2.10;;
28862;SDS011;15994;51.796;13.006;2023-09-30T12:49:05;6.13;;;1.75;;
28862;SDS011;15994;51.796;13.006;2023-09-30T12:51:35;6.40;;;1.92;;
28862;SDS011;15994;51.796;13.006;2023-09-30T12:54:02;6.75;;;1.67;;
28862;SDS011;15994;51.796;13.006;2023-09-30T12:56:29;8.35;;;3.17;;
28862;SDS011;15994;51.796;13.006;2023-09-30T12:58:57;7.55;;;2.45;;
28862;SDS011;15994;51.796;13.006;2023-09-30T13:01:24;8.30;;;1.90;;
28862;SDS011;15994;51.796;13.006;2023-09-30T13:03:53;6.47;;;1.67;;
28862;SDS011;15994;51.796;13.006;2023-09-30T13:06:20;8.27;;;1.60;;
28862;SDS011;15994;51.796;13.006;2023-09-30T13:08:46;6.85;;;1.55;;
28862;SDS011;15994;51.796;13.006;2023-09-30T13:11:14;6.43;;;1.80;;
28862;SDS011;15994;51.796;13.006;2023-09-30T13:13:41;7.43;;;1.73;;
28862;SDS011;15994;51.796;13.006;2023-09-30T13:16:09;5.82;;;1.42;;
28862;SDS011;15994;51.796;13.006;2023-09-30T13:18:37;6.82;;;1.90;;
28862;SDS011;15994;51.796;13.006;2023-09-30T13:21:04;7.03;;;1.70;;
28862;SDS011;15994;51.796;13.006;2023-09-30T13:23:31;5.65;;;1.23;;
28862;SDS011;15994;51.796;13.006;2023-09-30T13:25:58;4.50;;;1.50;;
28862;SDS011;15994;51.796;13.006;2023-09-30T13:28:24;7.25;;;1.75;;
28862;SDS011;15994;51.796;13.006;2023-09-30T13:30:52;5.35;;;1.38;;
28862;SDS011;15994;51.796;13.006;2023-09-30T13:33:19;8.43;;;1.70;;
28862;SDS011;15994;51.796;13.006;2023-09-30T13:35:46;7.53;;;1.70;;
28862;SDS011;15994;51.796;13.006;2023-09-30T13:38:13;8.50;;;1.70;;
28862;SDS011;15994;51.796;13.006;2023-09-30T13:40:41;6.13;;;1.70;;
28862;SDS011;15994;51.796;13.006;2023-09-30T13:43:07;5.57;;;1.60;;
28862;SDS011;15994;51.796;13.006;2023-09-30T13:45:34;6.68;;;1.70;;
28862;SDS011;15994;51.796;13.006;2023-09-30T13:48:02;8.27;;;1.85;;
28862;SDS011;15994;51.796;13.006;2023-09-30T13:50:29;6.53;;;1.60;;
28862;SDS011;15994;51.796;13.006;2023-09-30T13:52:56;8.13;;;1.92;;
28862;SDS011;15994;51.796;13.006;2023-09-30T13:55:25;7.20;;;1.88;;
28862;SDS011;15994;51.796;13.006;2023-09-30T13:57:52;5.70;;;1.83;;
28862;SDS011;15994;51.796;13.006;2023-09-30T14:00:19;6.35;;;1.90;;
28862;SDS011;15994;51.796;13.006;2023-09-30T14:02:46;5.97;;;1.50;;
28862;SDS011;15994;51.796;13.006;2023-09-30T14:05:13;5.82;;;1.67;;
28862;SDS011;15994;51.796;13.006;2023-09-30T14:07:40;8.82;;;1.92;;
28862;SDS011;15994;51.796;13.006;2023-09-30T14:10:08;7.30;;;1.55;;
28862;SDS011;15994;51.796;13.006;2023-09-30T14:12:36;9.23;;;2.13;;
28862;SDS011;15994;51.796;13.006;2023-09-30T14:15:04;7.43;;;1.88;;
28862;SDS011;15994;51.796;13.006;2023-09-30T14:17:31;5.60;;;1.83;;
28862;SDS011;15994;51.796;13.006;2023-09-30T14:19:59;8.18;;;2.00;;
28862;SDS011;15994;51.796;13.006;2023-09-30T14:22:27;8.23;;;2.17;;
28862;SDS011;15994;51.796;13.006;2023-09-30T14:24:54;9.85;;;2.05;;
28862;SDS011;15994;51.796;13.006;2023-09-30T14:27:21;6.75;;;1.83;;
28862;SDS011;15994;51.796;13.006;2023-09-30T14:29:48;5.97;;;1.90;;
28862;SDS011;15994;51.796;13.006;2023-09-30T14:32:14;9.35;;;2.28;;
28862;SDS011;15994;51.796;13.006;2023-09-30T14:34:41;8.55;;;2.38;;
28862;SDS011;15994;51.796;13.006;2023-09-30T14:37:08;7.80;;;1.80;;
28862;SDS011;15994;51.796;13.006;2023-09-30T14:39:35;10.18;;;2.30;;
28862;SDS011;15994;51.796;13.006;2023-09-30T14:42:01;7.15;;;1.80;;
28862;SDS011;15994;51.796;13.006;2023-09-30T14:44:30;6.13;;;1.95;;
28862;SDS011;15994;51.796;13.006;2023-09-30T14:46:58;11.70;;;2.35;;
28862;SDS011;15994;51.796;13.006;2023-09-30T14:49:25;6.15;;;2.08;;
28862;SDS011;15994;51.796;13.006;2023-09-30T14:51:51;6.10;;;1.98;;
28862;SDS011;15994;51.796;13.006;2023-09-30T14:54:18;7.38;;;2.10;;
28862;SDS011;15994;51.796;13.006;2023-09-30T14:56:45;6.10;;;1.73;;
28862;SDS011;15994;51.796;13.006;2023-09-30T14:59:11;11.15;;;2.00;;
28862;SDS011;15994;51.796;13.006;2023-09-30T15:01:39;7.60;;;1.70;;
28862;SDS011;15994;51.796;13.006;2023-09-30T15:04:06;4.72;;;1.55;;